createdAt,value
2023-01-15T00:01:26.841Z,20.20
2023-01-15T00:03:55.288Z,20.42
2023-01-15T00:06:23.326Z,20.22
2023-01-15T00:08:50.501Z,20.05
2023-01-15T00:11:17.934Z,20.25
2023-01-15T00:13:46.138Z,20.13
2023-01-15T00:16:12.630Z,20.03
2023-01-15T00:18:39.478Z,20.25
2023-01-15T00:21:08.583Z,20.49
2023-01-15T00:23:53.796Z,20.25
2023-01-15T00:27:00.694Z,19.63
2023-01-15T00:29:27.862Z,19.82
2023-01-15T00:31:58.144Z,19.06
2023-01-15T00:34:26.049Z,19.59
2023-01-15T00:36:53.136Z,20.24
2023-01-15T00:39:20.560Z,20.68
2023-01-15T00:41:47.958Z,19.74
2023-01-15T00:44:15.660Z,20.09
2023-01-15T00:46:42.677Z,20.13
2023-01-15T00:49:09.568Z,20.28
2023-01-15T00:51:36.500Z,20.14
2023-01-15T00:54:03.800Z,19.93
2023-01-15T00:56:30.876Z,20.01
2023-01-15T00:58:57.678Z,19.74
2023-01-15T01:01:25.256Z,20.63
2023-01-15T01:03:53.006Z,20.40
2023-01-15T01:06:22.491Z,20.28
2023-01-15T01:08:50.277Z,20.18
2023-01-15T01:11:19.945Z,20.02
2023-01-15T01:13:47.483Z,19.95
2023-01-15T01:16:33.525Z,20.34
2023-01-15T01:19:03.473Z,19.61
2023-01-15T01:21:31.111Z,20.25
2023-01-15T01:24:00.155Z,19.82
2023-01-15T01:26:30.659Z,20.20
2023-01-15T01:28:57.966Z,19.79
2023-01-15T01:31:25.056Z,20.15
2023-01-15T01:33:54.684Z,20.08
2023-01-15T01:36:28.159Z,19.52
2023-01-15T01:38:55.263Z,19.92
2023-01-15T01:41:21.754Z,18.95
2023-01-15T01:43:56.460Z,19.81
2023-01-15T01:46:24.100Z,19.25
2023-01-15T01:48:53.789Z,19.33
2023-01-15T01:51:24.278Z,20.02
2023-01-15T01:53:51.008Z,19.43
2023-01-15T01:56:18.945Z,19.57
2023-01-15T01:58:51.335Z,19.23
2023-01-15T02:01:18.110Z,19.30
2023-01-15T02:03:44.919Z,19.71
2023-01-15T02:06:14.078Z,19.79
2023-01-15T02:08:41.789Z,20.07
2023-01-15T02:11:14.966Z,20.16
2023-01-15T02:14:15.305Z,19.63
2023-01-15T02:17:15.267Z,19.70
2023-01-15T02:20:19.572Z,20.50
2023-01-15T02:23:16.036Z,20.35
2023-01-15T02:26:12.199Z,19.63
2023-01-15T02:28:42.036Z,19.86
2023-01-15T02:31:17.344Z,19.87
2023-01-15T02:33:52.434Z,19.78
2023-01-15T02:36:23.649Z,20.10
2023-01-15T02:38:55.750Z,19.29
2023-01-15T02:41:31.926Z,19.72
2023-01-15T02:44:01.540Z,19.07
2023-01-15T02:46:33.120Z,18.80
2023-01-15T02:49:05.397Z,18.87
2023-01-15T02:51:41.038Z,18.80
2023-01-15T02:54:13.150Z,19.02
2023-01-15T02:56:42.963Z,19.37
2023-01-15T02:59:15.289Z,19.48
2023-01-15T03:01:46.802Z,19.53
2023-01-15T03:04:29.056Z,19.99
2023-01-15T03:07:09.685Z,20.32
2023-01-15T03:09:37.952Z,20.03
2023-01-15T03:12:14.716Z,19.85
2023-01-15T03:15:09.672Z,19.80
2023-01-15T03:17:54.351Z,19.18
2023-01-15T03:20:26.512Z,19.37
2023-01-15T03:23:00.520Z,19.52
2023-01-15T03:25:33.165Z,19.36
2023-01-15T03:28:02.985Z,18.92
2023-01-15T03:30:30.025Z,19.21
2023-01-15T03:32:56.820Z,19.04
2023-01-15T03:35:46.005Z,19.12
2023-01-15T03:38:22.785Z,19.37
2023-01-15T03:41:24.855Z,18.83
2023-01-15T03:44:12.941Z,18.54
2023-01-15T03:47:02.802Z,19.49
2023-01-15T03:49:47.659Z,18.89
2023-01-15T03:52:39.307Z,19.19
2023-01-15T03:55:15.490Z,19.49
2023-01-15T03:57:55.552Z,18.90
2023-01-15T04:00:27.456Z,18.71
2023-01-15T04:03:00.138Z,19.13
2023-01-15T04:05:31.721Z,19.02
2023-01-15T04:08:00.094Z,18.42
2023-01-15T04:10:27.790Z,18.06
2023-01-15T04:12:56.418Z,18.00
2023-01-15T04:15:23.189Z,17.92
2023-01-15T04:17:49.806Z,18.43
2023-01-15T04:20:18.308Z,18.43
2023-01-15T04:22:47.202Z,18.40
2023-01-15T04:25:13.728Z,18.12
2023-01-15T04:27:40.572Z,17.74
2023-01-15T04:30:07.686Z,17.07
2023-01-15T04:32:34.211Z,17.31
2023-01-15T04:35:00.719Z,16.78
2023-01-15T04:37:27.233Z,16.77
2023-01-15T04:39:54.193Z,16.85
2023-01-15T04:42:39.270Z,17.84
2023-01-15T04:45:06.487Z,17.63
2023-01-15T04:47:33.422Z,18.13
2023-01-15T04:49:59.970Z,18.72
2023-01-15T04:52:26.761Z,18.47
2023-01-15T04:54:55.202Z,18.35
2023-01-15T04:57:21.734Z,17.62
2023-01-15T04:59:48.300Z,17.81
2023-01-15T05:02:15.602Z,17.06
2023-01-15T05:04:42.534Z,17.99
2023-01-15T05:07:09.838Z,17.32
2023-01-15T05:09:36.534Z,17.21
2023-01-15T05:12:03.205Z,17.64
2023-01-15T05:14:30.101Z,17.71
2023-01-15T05:16:57.116Z,18.02
2023-01-15T05:19:23.765Z,17.45
2023-01-15T05:21:52.438Z,18.51
2023-01-15T05:24:19.261Z,18.30
2023-01-15T05:26:46.079Z,17.30
2023-01-15T05:29:13.479Z,18.00
2023-01-15T05:31:41.840Z,17.49
2023-01-15T05:34:09.862Z,17.71
2023-01-15T05:36:37.517Z,17.09
2023-01-15T05:39:05.595Z,17.24
2023-01-15T05:41:50.625Z,17.66
2023-01-15T05:44:23.829Z,17.20
2023-01-15T05:46:53.178Z,17.70
2023-01-15T05:49:22.222Z,17.49
2023-01-15T05:51:49.529Z,18.08
2023-01-15T05:54:21.029Z,18.02
2023-01-15T05:56:48.806Z,18.31
2023-01-15T05:59:17.545Z,18.26
2023-01-15T06:01:45.357Z,17.95
2023-01-15T06:04:17.601Z,17.41
2023-01-15T06:06:44.591Z,17.65
2023-01-15T06:09:11.232Z,16.94
2023-01-15T06:11:37.927Z,16.77
2023-01-15T06:14:04.781Z,17.40
2023-01-15T06:16:31.951Z,17.28
2023-01-15T06:19:04.069Z,17.21
2023-01-15T06:21:32.479Z,17.12
2023-01-15T06:23:59.058Z,17.29
2023-01-15T06:26:25.759Z,16.57
2023-01-15T06:28:52.869Z,17.30
2023-01-15T06:31:21.407Z,17.05
2023-01-15T06:33:47.997Z,16.75
2023-01-15T06:36:17.047Z,16.75
2023-01-15T06:38:44.772Z,16.52
2023-01-15T06:41:34.361Z,16.89
2023-01-15T06:44:19.526Z,16.80
2023-01-15T06:47:07.238Z,17.38
2023-01-15T06:49:35.290Z,17.16
2023-01-15T06:52:02.582Z,17.77
2023-01-15T06:54:29.126Z,17.43
2023-01-15T06:56:55.647Z,17.29
2023-01-15T06:59:22.366Z,17.37
2023-01-15T07:01:49.140Z,17.98
2023-01-15T07:04:16.410Z,18.30
2023-01-15T07:06:43.276Z,18.53
2023-01-15T07:09:10.312Z,17.85
2023-01-15T07:11:49.166Z,18.31
2023-01-15T07:14:24.880Z,18.77
2023-01-15T07:16:52.635Z,17.92
2023-01-15T07:19:20.156Z,18.04
2023-01-15T07:21:47.374Z,17.57
2023-01-15T07:24:14.191Z,17.53
2023-01-15T07:26:41.598Z,17.41
2023-01-15T07:29:08.136Z,16.67
2023-01-15T07:31:34.979Z,16.78
2023-01-15T07:34:01.476Z,16.76
2023-01-15T07:36:28.444Z,17.03
2023-01-15T07:38:55.064Z,17.38
2023-01-15T07:41:40.632Z,17.67
2023-01-15T07:44:30.252Z,17.64
2023-01-15T07:47:16.039Z,16.83
2023-01-15T07:49:46.013Z,16.92
2023-01-15T07:52:20.051Z,17.60
2023-01-15T07:54:48.069Z,18.02
2023-01-15T07:57:18.062Z,17.88
2023-01-15T07:59:45.129Z,16.91
2023-01-15T08:02:12.893Z,16.61
2023-01-15T08:04:39.655Z,17.27
2023-01-15T08:07:06.752Z,17.40
2023-01-15T08:09:33.278Z,16.85
2023-01-15T08:12:19.213Z,17.33
2023-01-15T08:15:21.846Z,17.62
2023-01-15T08:17:50.209Z,17.66
2023-01-15T08:20:19.276Z,17.14
2023-01-15T08:22:46.759Z,17.96
2023-01-15T08:25:16.633Z,17.91
2023-01-15T08:27:43.896Z,17.48
2023-01-15T08:30:19.307Z,17.78
2023-01-15T08:32:46.151Z,18.23
2023-01-15T08:35:13.531Z,18.27
2023-01-15T08:37:41.538Z,18.13
2023-01-15T08:40:09.572Z,18.68
2023-01-15T08:42:36.134Z,17.87
2023-01-15T08:45:02.681Z,17.00
2023-01-15T08:47:29.187Z,18.03
2023-01-15T08:49:55.711Z,17.43
2023-01-15T08:52:22.211Z,17.39
2023-01-15T08:54:48.851Z,15.86
2023-01-15T08:57:15.362Z,14.76
2023-01-15T08:59:43.295Z,15.04
2023-01-15T09:02:14.233Z,14.56
2023-01-15T09:04:40.995Z,14.88
2023-01-15T09:07:07.646Z,15.58
2023-01-15T09:09:34.313Z,18.77
2023-01-15T09:12:00.815Z,16.89
2023-01-15T09:14:59.375Z,16.46
2023-01-15T09:17:14.007Z,16.09
2023-01-15T09:19:40.522Z,16.78
2023-01-15T09:22:07.014Z,17.15
2023-01-15T09:24:34.401Z,17.84
2023-01-15T09:27:02.336Z,18.72
2023-01-15T09:29:28.830Z,19.64
2023-01-15T09:31:55.359Z,20.14
2023-01-15T09:34:21.865Z,20.28
2023-01-15T09:36:48.407Z,20.04
2023-01-15T09:39:14.918Z,18.69
2023-01-15T09:42:00.320Z,18.90
2023-01-15T09:44:37.009Z,19.15
2023-01-15T09:47:07.508Z,18.85
2023-01-15T09:49:53.652Z,17.63
2023-01-15T09:52:43.151Z,16.48
2023-01-15T09:55:15.233Z,17.03
2023-01-15T09:57:43.335Z,16.77
2023-01-15T10:00:19.562Z,17.03
2023-01-15T10:02:58.951Z,15.42
2023-01-15T10:05:35.150Z,14.56
2023-01-15T10:08:23.357Z,14.72
2023-01-15T10:11:03.044Z,15.29
2023-01-15T10:13:43.425Z,16.49
2023-01-15T10:16:11.518Z,17.14
2023-01-15T10:18:40.130Z,16.87
2023-01-15T10:21:32.406Z,16.06
2023-01-15T10:24:20.489Z,15.82
2023-01-15T10:26:55.118Z,15.35
2023-01-15T10:29:31.082Z,15.76
2023-01-15T10:32:21.198Z,16.93
2023-01-15T10:35:25.192Z,17.84
2023-01-15T10:38:25.786Z,17.48
2023-01-15T10:41:18.429Z,18.72
2023-01-15T10:43:53.820Z,18.14
2023-01-15T10:46:30.199Z,18.33
2023-01-15T10:49:02.850Z,18.54
2023-01-15T10:51:47.391Z,18.97
2023-01-15T10:54:38.466Z,18.25
2023-01-15T10:57:21.813Z,18.07
2023-01-15T10:59:56.334Z,18.20
2023-01-15T11:02:42.946Z,17.12
2023-01-15T11:05:21.219Z,17.17
2023-01-15T11:08:15.267Z,17.38
2023-01-15T11:10:40.614Z,17.19
2023-01-15T11:13:40.196Z,17.94
2023-01-15T11:16:34.181Z,17.01
2023-01-15T11:19:23.045Z,17.70
2023-01-15T11:21:51.384Z,17.97
2023-01-15T11:24:18.860Z,17.78
2023-01-15T11:26:52.062Z,17.19
2023-01-15T11:29:34.170Z,17.15
2023-01-15T11:32:01.125Z,17.22
2023-01-15T11:34:27.620Z,17.38
2023-01-15T11:37:06.743Z,17.79
2023-01-15T11:39:33.438Z,17.18
2023-01-15T11:42:23.878Z,17.13
2023-01-15T11:45:11.252Z,17.64
2023-01-15T11:47:56.542Z,16.54
2023-01-15T11:50:41.936Z,16.57
2023-01-15T11:53:19.665Z,16.61
2023-01-15T11:56:02.468Z,16.34
2023-01-15T11:58:33.757Z,16.71
2023-01-15T12:01:01.149Z,16.44
2023-01-15T12:03:30.696Z,16.33
2023-01-15T12:06:05.139Z,15.48
2023-01-15T12:08:55.892Z,16.37
2023-01-15T12:12:00.175Z,16.55
2023-01-15T12:14:39.460Z,16.31
2023-01-15T12:17:20.807Z,16.32
2023-01-15T12:19:56.390Z,16.55
2023-01-15T12:22:44.698Z,16.97
2023-01-15T12:25:23.828Z,16.99
2023-01-15T12:27:55.374Z,17.26
2023-01-15T12:30:31.576Z,17.66
2023-01-15T12:33:13.844Z,16.61
2023-01-15T12:35:48.209Z,16.14
2023-01-15T12:38:25.596Z,16.42
2023-01-15T12:40:59.787Z,16.18
2023-01-15T12:43:46.439Z,16.06
2023-01-15T12:46:23.186Z,16.50
2023-01-15T12:48:56.041Z,16.15
2023-01-15T12:51:47.125Z,17.11
2023-01-15T12:54:17.812Z,16.78
2023-01-15T12:57:02.836Z,16.08
2023-01-15T12:59:36.802Z,16.59
2023-01-15T13:02:20.219Z,16.76
2023-01-15T13:04:51.295Z,16.78
2023-01-15T13:07:31.464Z,16.80
2023-01-15T13:10:16.035Z,16.00
2023-01-15T13:12:42.780Z,15.57
2023-01-15T13:15:14.799Z,15.26
2023-01-15T13:18:09.221Z,16.26
2023-01-15T13:20:52.540Z,15.82
2023-01-15T13:23:44.320Z,15.87
2023-01-15T13:26:30.663Z,15.28
2023-01-15T13:28:59.808Z,15.02
2023-01-15T13:31:53.903Z,16.07
2023-01-15T13:34:44.896Z,16.90
2023-01-15T13:37:20.361Z,16.36
2023-01-15T13:39:49.171Z,16.31
2023-01-15T13:42:32.466Z,16.24
2023-01-15T13:45:04.461Z,16.42
2023-01-15T13:47:35.007Z,15.94
2023-01-15T13:50:12.998Z,16.49
2023-01-15T13:52:39.601Z,16.48
2023-01-15T13:55:15.423Z,16.20
2023-01-15T13:57:43.209Z,16.68
2023-01-15T14:00:40.511Z,16.49
2023-01-15T14:03:31.602Z,16.03
2023-01-15T14:06:02.858Z,16.32
2023-01-15T14:08:44.522Z,16.00
2023-01-15T14:11:35.828Z,15.84
2023-01-15T14:14:14.261Z,16.34
2023-01-15T14:17:06.774Z,16.53
2023-01-15T14:19:51.918Z,15.00
2023-01-15T14:22:56.052Z,15.86
2023-01-15T14:25:58.914Z,15.84
2023-01-15T14:28:39.275Z,16.61
2023-01-15T14:31:19.692Z,16.48
2023-01-15T14:33:58.924Z,17.38
2023-01-15T14:36:34.081Z,17.05
2023-01-15T14:39:03.395Z,16.75
2023-01-15T14:41:33.527Z,15.91
2023-01-15T14:44:02.610Z,15.84
2023-01-15T14:46:34.526Z,16.46
2023-01-15T14:49:02.277Z,16.62
2023-01-15T14:51:37.463Z,16.67
2023-01-15T14:54:10.943Z,16.34
2023-01-15T14:56:44.193Z,15.72
2023-01-15T14:59:20.775Z,15.15
2023-01-15T15:02:15.985Z,16.14
2023-01-15T15:04:53.915Z,15.67
2023-01-15T15:07:24.413Z,15.61
2023-01-15T15:10:08.140Z,15.96
2023-01-15T15:12:42.550Z,15.53
2023-01-15T15:15:27.316Z,15.71
2023-01-15T15:18:01.039Z,15.92
2023-01-15T15:20:48.072Z,16.49
2023-01-15T15:23:25.783Z,15.87
2023-01-15T15:25:56.791Z,15.85
2023-01-15T15:28:23.969Z,16.62
2023-01-15T15:30:51.284Z,16.11
2023-01-15T15:33:21.726Z,16.11
2023-01-15T15:35:52.373Z,16.50
2023-01-15T15:38:20.992Z,16.72
2023-01-15T15:40:52.197Z,16.09
2023-01-15T15:44:09.894Z,15.89
2023-01-15T15:46:55.255Z,15.90
2023-01-15T15:49:21.815Z,15.90
2023-01-15T15:51:53.279Z,16.02
2023-01-15T15:54:37.885Z,16.25
2023-01-15T15:57:20.239Z,16.46
2023-01-15T15:59:51.856Z,16.83
2023-01-15T16:02:27.609Z,16.10
2023-01-15T16:04:56.087Z,16.09
2023-01-15T16:07:27.018Z,16.31
2023-01-15T16:09:58.045Z,15.71
2023-01-15T16:12:28.964Z,16.29
2023-01-15T16:14:57.823Z,15.99
2023-01-15T16:17:28.671Z,15.88
2023-01-15T16:19:56.646Z,16.33
2023-01-15T16:22:23.461Z,16.66
2023-01-15T16:24:59.486Z,16.56
2023-01-15T16:27:30.161Z,16.26
2023-01-15T16:29:56.770Z,16.89
2023-01-15T16:32:28.697Z,16.13
2023-01-15T16:35:07.886Z,15.59
2023-01-15T16:37:35.848Z,15.47
2023-01-15T16:40:05.535Z,14.86
2023-01-15T16:42:43.726Z,15.82
2023-01-15T16:45:23.662Z,15.95
2023-01-15T16:48:08.530Z,15.81
2023-01-15T16:50:37.197Z,15.89
2023-01-15T16:53:05.846Z,16.29
2023-01-15T16:55:43.787Z,15.80
2023-01-15T16:58:15.067Z,16.33
2023-01-15T17:00:48.072Z,15.93
2023-01-15T17:03:18.985Z,15.52
2023-01-15T17:05:52.856Z,15.77
2023-01-15T17:08:41.791Z,15.33
2023-01-15T17:11:21.003Z,14.97
2023-01-15T17:13:48.779Z,14.79
2023-01-15T17:16:20.845Z,15.23
2023-01-15T17:18:49.909Z,15.31
2023-01-15T17:21:28.697Z,15.98
2023-01-15T17:23:56.235Z,15.48
2023-01-15T17:26:25.204Z,15.02
2023-01-15T17:28:52.333Z,15.33
2023-01-15T17:31:30.597Z,14.48
2023-01-15T17:33:59.423Z,14.48
2023-01-15T17:36:26.555Z,15.71
2023-01-15T17:38:54.158Z,15.02
2023-01-15T17:41:22.229Z,15.49
2023-01-15T17:43:49.947Z,15.39
2023-01-15T17:46:17.169Z,15.39
2023-01-15T17:48:45.156Z,15.58
2023-01-15T17:51:15.648Z,16.02
2023-01-15T17:53:43.037Z,15.43
2023-01-15T17:56:28.780Z,15.45
2023-01-15T17:59:15.556Z,16.02
2023-01-15T18:02:03.638Z,15.78
2023-01-15T18:04:57.696Z,15.89
2023-01-15T18:07:27.836Z,16.38
2023-01-15T18:09:56.480Z,15.79
2023-01-15T18:12:23.429Z,15.11
2023-01-15T18:14:50.237Z,14.65
2023-01-15T18:17:16.774Z,15.36
2023-01-15T18:19:43.799Z,15.42
2023-01-15T18:22:10.571Z,15.27
2023-01-15T18:24:37.132Z,15.27
2023-01-15T18:27:03.708Z,15.20
2023-01-15T18:29:31.250Z,14.69
2023-01-15T18:31:58.033Z,14.68
2023-01-15T18:34:24.527Z,14.15
2023-01-15T18:36:51.051Z,14.38
2023-01-15T18:39:17.552Z,14.03
2023-01-15T18:41:44.296Z,14.64
2023-01-15T18:44:35.152Z,14.33
2023-01-15T18:47:09.593Z,14.25
2023-01-15T18:49:36.372Z,14.18
2023-01-15T18:52:21.568Z,14.39
2023-01-15T18:54:48.711Z,14.15
2023-01-15T18:57:16.455Z,13.49
2023-01-15T18:59:45.133Z,14.36
2023-01-15T19:02:13.493Z,14.50
2023-01-15T19:04:41.059Z,14.73
2023-01-15T19:07:08.054Z,14.86
2023-01-15T19:09:36.718Z,15.30
2023-01-15T19:12:05.371Z,15.39
2023-01-15T19:14:52.611Z,15.07
2023-01-15T19:17:42.969Z,14.97
2023-01-15T19:20:12.063Z,15.14
2023-01-15T19:22:57.136Z,15.31
2023-01-15T19:25:25.673Z,15.30
2023-01-15T19:27:53.009Z,15.49
2023-01-15T19:30:19.606Z,16.03
2023-01-15T19:32:46.453Z,15.86
2023-01-15T19:35:13.085Z,15.83
2023-01-15T19:37:39.875Z,15.58
2023-01-15T19:40:14.266Z,15.68
2023-01-15T19:42:59.488Z,16.26
2023-01-15T19:45:44.942Z,16.25
2023-01-15T19:48:32.600Z,16.61
2023-01-15T19:50:59.394Z,16.52
2023-01-15T19:53:26.319Z,16.56
2023-01-15T19:55:53.041Z,15.82
2023-01-15T19:58:20.703Z,16.08
2023-01-15T20:00:48.630Z,16.09
2023-01-15T20:03:16.382Z,15.54
2023-01-15T20:05:43.500Z,16.00
2023-01-15T20:08:13.953Z,16.55
2023-01-15T20:10:42.755Z,16.17
2023-01-15T20:13:31.972Z,15.92
2023-01-15T20:16:01.607Z,16.39
2023-01-15T20:18:28.712Z,15.75
2023-01-15T20:20:55.969Z,16.57
2023-01-15T20:23:49.506Z,16.59
2023-01-15T20:26:17.114Z,16.24
2023-01-15T20:28:47.188Z,16.57
2023-01-15T20:31:15.869Z,16.52
2023-01-15T20:33:42.399Z,16.34
2023-01-15T20:36:09.685Z,16.87
2023-01-15T20:38:36.320Z,17.37
2023-01-15T20:41:26.807Z,16.62
2023-01-15T20:44:12.604Z,16.65
2023-01-15T20:46:39.491Z,19.85
2023-01-15T20:49:25.411Z,17.70
2023-01-15T20:51:52.743Z,17.04
2023-01-15T20:54:20.666Z,17.56
2023-01-15T20:56:47.631Z,16.83
2023-01-15T20:59:14.364Z,17.05
2023-01-15T21:01:41.009Z,16.35
2023-01-15T21:04:07.888Z,18.10
2023-01-15T21:06:34.454Z,17.54
2023-01-15T21:09:01.085Z,17.41
2023-01-15T21:11:27.811Z,17.59
2023-01-15T21:13:54.832Z,16.80
2023-01-15T21:16:21.627Z,16.58
2023-01-15T21:18:49.308Z,17.19
2023-01-15T21:21:19.019Z,17.12
2023-01-15T21:23:45.696Z,17.18
2023-01-15T21:26:15.876Z,16.95
2023-01-15T21:28:44.139Z,17.66
2023-01-15T21:31:11.386Z,17.60
2023-01-15T21:33:39.743Z,17.63
2023-01-15T21:36:08.007Z,17.72
2023-01-15T21:38:34.673Z,18.14
2023-01-15T21:41:14.905Z,18.05
2023-01-15T21:44:01.324Z,18.13
2023-01-15T21:46:28.387Z,17.43
2023-01-15T21:48:56.202Z,17.77
2023-01-15T21:51:23.371Z,18.09
2023-01-15T21:53:49.915Z,18.26
2023-01-15T21:56:17.017Z,17.68
2023-01-15T21:58:43.530Z,18.12
2023-01-15T22:01:12.132Z,17.98
2023-01-15T22:03:39.410Z,17.57
2023-01-15T22:06:07.783Z,17.91
2023-01-15T22:08:34.514Z,18.11
2023-01-15T22:11:03.484Z,17.70
2023-01-15T22:13:30.062Z,17.83
2023-01-15T22:15:56.561Z,17.44
2023-01-15T22:18:27.657Z,17.40
2023-01-15T22:21:07.586Z,17.30
2023-01-15T22:23:34.740Z,17.30
2023-01-15T22:26:01.680Z,17.57
2023-01-15T22:28:28.203Z,16.82
2023-01-15T22:30:54.722Z,17.34
2023-01-15T22:33:21.441Z,17.18
2023-01-15T22:35:59.197Z,17.11
2023-01-15T22:38:26.638Z,17.67
2023-01-15T22:40:53.442Z,18.05
2023-01-15T22:43:19.961Z,16.94
2023-01-15T22:45:46.541Z,17.24
2023-01-15T22:48:13.212Z,17.76
2023-01-15T22:50:39.853Z,17.40
2023-01-15T22:53:06.384Z,17.73
2023-01-15T22:55:33.007Z,17.88
2023-01-15T22:58:00.029Z,17.13
2023-01-15T23:00:27.259Z,16.93
2023-01-15T23:03:04.747Z,16.72
2023-01-15T23:05:36.756Z,16.44
2023-01-15T23:08:03.528Z,17.20
2023-01-15T23:10:30.582Z,17.34
2023-01-15T23:12:57.160Z,17.37
2023-01-15T23:15:24.246Z,17.53
2023-01-15T23:17:50.810Z,17.05
2023-01-15T23:20:17.415Z,17.45
2023-01-15T23:22:43.967Z,16.99
2023-01-15T23:25:10.689Z,16.93
2023-01-15T23:27:37.356Z,17.30
2023-01-15T23:30:04.720Z,17.61
2023-01-15T23:32:31.234Z,17.66
2023-01-15T23:34:57.756Z,17.79
2023-01-15T23:37:24.262Z,17.52
2023-01-15T23:39:51.016Z,18.14
2023-01-15T23:42:35.985Z,17.71
2023-01-15T23:45:21.158Z,17.94
2023-01-15T23:47:47.652Z,17.95
2023-01-15T23:50:14.498Z,18.15
2023-01-15T23:52:41.004Z,17.47
2023-01-15T23:55:07.961Z,17.69
2023-01-15T23:57:34.564Z,18.45
